Time;durP1;ratioP1;P1;durP2;ratioP2;P2;SDS_P1;SDS_P2;PMS_P1;PMS_P2;Temp;Humidity;BMP_temperature;BMP_pressure;BME280_temperature;BME280_humidity;BME280_pressure;Samples;Min_cycle;Max_cycle;Signal;HPM_P1;HPM_P2
2021/12/31 00:02:16;;;;;;;9.50;3.13;;;;;;;10.00;100.00;101172.25;5023166;28;20571;-75
2021/12/31 00:04:42;;;;;;;10.60;2.70;;;;;;;10.36;100.00;101196.44;5023730;28;20883;-75
2021/12/31 00:07:07;;;;;;;10.17;3.40;;;;;;;10.14;100.00;101197.38;5026148;28;20211;-75
2021/12/31 00:09:33;;;;;;;14.80;4.57;;;;;;;10.01;100.00;101173.94;5027180;28;20187;-76
2021/12/31 00:11:58;;;;;;;12.67;2.77;;;;;;;11.43;100.00;101345.19;5036159;28;20378;-73
2021/12/31 00:14:24;;;;;;;10.67;2.87;;;;;;;10.99;100.00;101262.94;5023845;28;20203;-74
2021/12/31 00:16:49;;;;;;;12.53;2.77;;;;;;;11.54;100.00;101368.81;5022302;28;20180;-75
2021/12/31 00:19:15;;;;;;;8.87;2.57;;;;;;;11.61;100.00;101388.53;5024426;28;20271;-74
2021/12/31 00:21:45;;;;;;;13.23;3.10;;;;;;;9.87;100.00;101086.34;5022011;28;20192;-74
2021/12/31 00:24:10;;;;;;;12.23;2.70;;;;;;;10.38;100.00;101212.31;5019130;28;20462;-73
2021/12/31 00:26:35;;;;;;;11.20;2.83;;;;;;;10.18;100.00;101155.75;5026578;28;20845;-74
2021/12/31 00:29:01;;;;;;;16.73;2.93;;;;;;;11.18;100.00;101302.56;5023012;28;20727;-73
2021/12/31 00:31:27;;;;;;;15.23;2.67;;;;;;;11.27;100.00;101324.78;5017340;28;20208;-74
2021/12/31 00:33:52;;;;;;;10.57;2.70;;;;;;;9.99;100.00;101124.22;5022997;28;20204;-75
2021/12/31 00:36:18;;;;;;;12.77;3.43;;;;;;;11.47;100.00;101341.91;5018942;28;20194;-74
2021/12/31 00:38:43;;;;;;;16.17;3.90;;;;;;;11.67;100.00;101360.06;5028851;28;20220;-75
2021/12/31 00:41:09;;;;;;;13.67;3.20;;;;;;;11.15;100.00;101269.91;5020627;28;20199;-74
2021/12/31 00:43:34;;;;;;;10.33;2.53;;;;;;;11.04;100.00;101265.88;5021570;28;21751;-73
2021/12/31 00:46:02;;;;;;;9.53;2.40;;;;;;;11.60;100.00;101353.78;5023839;28;20199;-74
2021/12/31 00:48:27;;;;;;;14.00;3.73;;;;;;;11.41;100.00;101312.31;5024934;28;20208;-74
2021/12/31 00:50:53;;;;;;;8.93;2.40;;;;;;;11.18;100.00;101269.53;5038448;28;20447;-73
2021/12/31 00:53:18;;;;;;;12.20;2.33;;;;;;;11.58;100.00;101337.88;5023365;28;20279;-73
2021/12/31 00:55:44;;;;;;;8.77;2.37;;;;;;;11.61;100.00;101339.34;5023961;28;20194;-73
2021/12/31 00:58:09;;;;;;;13.40;3.17;;;;;;;11.75;100.00;101365.31;5022346;28;20712;-75
2021/12/31 01:00:35;;;;;;;11.70;3.00;;;;;;;11.50;100.00;101344.19;5015034;28;20183;-74
2021/12/31 01:03:00;;;;;;;16.33;3.53;;;;;;;11.33;100.00;101299.81;5027493;28;20958;-74
2021/12/31 01:05:26;;;;;;;10.73;2.80;;;;;;;10.76;100.00;101212.13;5024299;28;20496;-72
2021/12/31 01:07:52;;;;;;;10.17;2.53;;;;;;;10.94;100.00;101246.59;5028836;28;20247;-74
2021/12/31 01:10:18;;;;;;;12.00;2.70;;;;;;;11.53;100.00;101373.38;5024935;28;20373;-74
2021/12/31 01:12:44;;;;;;;10.27;3.00;;;;;;;11.44;100.00;101358.41;5026569;28;20270;-74
2021/12/31 01:15:19;;;;;;;11.30;2.87;;;;;;;11.41;100.00;101349.91;5026992;28;20458;-73
2021/12/31 01:20:25;;;;;;;9.10;2.77;;;;;;;10.91;100.00;101288.06;5025058;28;20491;-74
2021/12/31 01:22:50;;;;;;;9.63;2.60;;;;;;;11.31;100.00;101369.00;5025324;28;20906;-73
2021/12/31 01:25:15;;;;;;;18.20;3.80;;;;;;;11.37;100.00;101341.41;5023046;28;20239;-74
2021/12/31 01:27:42;;;;;;;13.87;3.37;;;;;;;10.67;100.00;101246.28;5031485;28;20207;-75
2021/12/31 01:30:09;;;;;;;16.83;2.80;;;;;;;11.26;100.00;101341.91;5026227;28;20188;-73
2021/12/31 01:32:35;;;;;;;13.40;3.70;;;;;;;11.17;100.00;101314.34;5026795;28;20446;-73
2021/12/31 01:35:01;;;;;;;10.20;2.70;;;;;;;11.21;100.00;101310.25;5026792;28;20537;-75
2021/12/31 01:37:26;;;;;;;13.60;3.07;;;;;;;11.18;100.00;101307.13;5022477;28;20219;-74
2021/12/31 01:39:52;;;;;;;13.03;3.07;;;;;;;11.42;100.00;101381.09;5026306;28;20199;-74
2021/12/31 01:42:22;;;;;;;12.83;2.97;;;;;;;11.33;100.00;101356.22;5025879;28;20188;-74
2021/12/31 01:44:56;;;;;;;16.83;3.20;;;;;;;11.42;100.00;101365.00;5024969;28;20218;-74
2021/12/31 01:47:33;;;;;;;15.23;3.30;;;;;;;10.72;100.00;101254.59;5025294;28;20616;-73
2021/12/31 01:50:02;;;;;;;12.10;2.80;;;;;;;11.47;100.00;101389.44;5020954;28;20438;-74
2021/12/31 01:52:27;;;;;;;13.07;3.00;;;;;;;10.99;100.00;101312.09;5024319;28;20526;-73
2021/12/31 01:54:53;;;;;;;13.60;3.00;;;;;;;11.50;100.00;101389.03;5024789;28;20451;-74
2021/12/31 01:57:20;;;;;;;12.07;3.37;;;;;;;10.50;100.00;101221.56;5024121;28;20310;-71
2021/12/31 01:59:45;;;;;;;15.27;2.80;;;;;;;11.21;100.00;101322.84;5022593;28;20553;-73
2021/12/31 02:02:11;;;;;;;12.87;3.30;;;;;;;10.87;100.00;101289.44;5023931;28;20499;-74
2021/12/31 02:04:38;;;;;;;14.67;3.20;;;;;;;11.52;100.00;101381.63;5032369;28;20212;-72
2021/12/31 02:07:05;;;;;;;16.63;2.97;;;;;;;11.32;100.00;101366.16;5027710;28;20462;-72
2021/12/31 02:09:35;;;;;;;14.47;3.37;;;;;;;11.51;100.00;101388.88;5026091;28;20449;-72
2021/12/31 02:12:00;;;;;;;12.37;3.27;;;;;;;11.56;100.00;101388.28;5024001;28;20437;-75
2021/12/31 02:14:27;;;;;;;8.50;2.70;;;;;;;11.03;100.00;101326.81;5024549;28;21044;-73
2021/12/31 02:16:52;;;;;;;19.00;3.23;;;;;;;10.20;100.00;101185.91;5018331;28;20709;-74
2021/12/31 02:19:27;;;;;;;18.10;4.10;;;;;;;11.52;100.00;101377.09;5025024;28;20435;-74
2021/12/31 02:21:52;;;;;;;11.77;2.90;;;;;;;10.93;100.00;101291.38;5022716;28;20176;-75
2021/12/31 02:24:19;;;;;;;13.00;3.03;;;;;;;10.88;100.00;101277.72;5023075;28;20466;-73
2021/12/31 02:26:45;;;;;;;11.40;2.80;;;;;;;11.57;100.00;101381.03;5023710;28;20688;-74
2021/12/31 02:29:10;;;;;;;15.37;3.67;;;;;;;11.11;100.00;101299.00;5039224;28;20461;-74
2021/12/31 02:31:36;;;;;;;11.87;2.87;;;;;;;10.81;100.00;101260.69;5028017;28;20272;-75
2021/12/31 02:34:01;;;;;;;15.40;3.50;;;;;;;10.70;100.00;101247.75;5026164;28;20338;-74
2021/12/31 02:36:26;;;;;;;15.90;3.10;;;;;;;11.09;100.00;101320.66;5019579;28;20198;-75
2021/12/31 02:38:52;;;;;;;11.10;2.40;;;;;;;10.83;100.00;101272.91;5023567;28;20207;-73
2021/12/31 02:41:17;;;;;;;13.00;2.93;;;;;;;11.14;100.00;101319.25;5019266;28;20219;-72
2021/12/31 02:43:43;;;;;;;10.03;2.67;;;;;;;11.42;100.00;101362.31;5023563;28;20307;-74
2021/12/31 02:46:09;;;;;;;12.00;3.03;;;;;;;11.43;100.00;101355.94;5023221;28;20664;-74
2021/12/31 02:48:34;;;;;;;16.90;3.43;;;;;;;11.14;100.00;101308.50;5022482;28;20891;-74
2021/12/31 02:51:01;;;;;;;17.20;3.80;;;;;;;10.36;100.00;101184.91;5022673;28;20187;-74
2021/12/31 02:53:41;;;;;;;13.20;4.10;;;;;;;11.24;100.00;101306.34;5026668;28;20676;-73
2021/12/31 02:56:12;;;;;;;20.90;3.77;;;;;;;11.59;100.00;101361.03;5023337;28;20876;-74
2021/12/31 02:58:39;;;;;;;12.03;3.03;;;;;;;11.32;100.00;101322.34;5030181;28;20488;-74
2021/12/31 03:01:07;;;;;;;16.10;3.60;;;;;;;11.42;100.00;101349.69;5023078;28;20454;-73
2021/12/31 03:03:34;;;;;;;12.30;3.03;;;;;;;11.67;100.00;101379.72;5028623;28;20446;-71
2021/12/31 03:06:00;;;;;;;15.00;3.23;;;;;;;11.67;100.00;101371.66;5023353;28;20918;-73
2021/12/31 03:08:30;;;;;;;17.60;3.23;;;;;;;11.11;100.00;101274.84;5024592;28;21000;-72
2021/12/31 03:10:56;;;;;;;9.40;3.00;;;;;;;11.69;100.00;101358.03;5024726;28;20539;-74
2021/12/31 03:13:23;;;;;;;21.47;4.20;;;;;;;11.49;100.00;101317.56;5025095;28;20704;-73
2021/12/31 03:15:50;;;;;;;13.27;3.93;;;;;;;11.64;100.00;101341.66;5024086;28;20849;-74
2021/12/31 03:18:18;;;;;;;9.93;3.60;;;;;;;11.08;100.00;101248.38;5022733;28;20475;-73
2021/12/31 03:20:57;;;;;;;10.97;3.03;;;;;;;11.28;100.00;101303.09;5028490;28;21000;-72
2021/12/31 03:23:24;;;;;;;11.93;2.53;;;;;;;11.28;100.00;101303.09;5031253;28;20430;-72
2021/12/31 03:25:50;;;;;;;14.57;3.17;;;;;;;10.38;100.00;101148.78;5028307;28;21433;-73
2021/12/31 03:28:15;;;;;;;11.53;2.70;;;;;;;11.63;100.00;101319.31;5028155;28;20469;-72
2021/12/31 03:30:41;;;;;;;12.43;3.50;;;;;;;10.01;100.00;101077.44;5027157;28;20438;-72
2021/12/31 03:33:06;;;;;;;13.77;3.13;;;;;;;11.00;100.00;101219.81;5026567;28;20195;-73
2021/12/31 03:35:32;;;;;;;10.23;3.10;;;;;;;11.36;100.00;101271.75;5024936;28;20213;-72
2021/12/31 03:37:57;;;;;;;10.60;2.70;;;;;;;10.44;100.00;101144.53;5024397;28;20554;-73
2021/12/31 03:40:23;;;;;;;12.70;3.10;;;;;;;11.23;100.00;101292.09;5024246;28;20330;-73
2021/12/31 03:42:48;;;;;;;13.47;3.40;;;;;;;11.16;100.00;101255.47;5023081;28;20210;-73
2021/12/31 03:45:14;;;;;;;9.60;2.90;;;;;;;11.42;100.00;101298.66;5028297;28;20250;-74
2021/12/31 03:47:39;;;;;;;13.10;3.33;;;;;;;11.64;100.00;101349.72;5026478;28;20203;-73
2021/12/31 03:50:06;;;;;;;13.33;3.20;;;;;;;10.31;100.00;101113.06;5025438;28;20199;-73
2021/12/31 03:52:31;;;;;;;8.53;2.50;;;;;;;11.06;100.00;101235.16;5015177;28;20684;-73
2021/12/31 03:54:56;;;;;;;9.13;3.10;;;;;;;11.53;100.00;101282.03;5021870;28;20467;-73
2021/12/31 03:57:22;;;;;;;10.43;2.93;;;;;;;11.86;100.00;101332.56;5022068;28;20259;-72
2021/12/31 03:59:47;;;;;;;9.57;2.17;;;;;;;11.56;100.00;101288.03;5022123;28;20183;-73
2021/12/31 04:02:12;;;;;;;10.17;3.03;;;;;;;11.73;100.00;101313.59;5024899;28;20646;-74
2021/12/31 04:04:38;;;;;;;9.17;2.30;;;;;;;11.66;100.00;101300.13;5023610;28;20211;-74
2021/12/31 04:07:03;;;;;;;9.57;3.00;;;;;;;11.70;100.00;101298.69;5022446;28;20211;-74
2021/12/31 04:09:29;;;;;;;12.03;3.10;;;;;;;11.31;100.00;101237.41;5024506;28;20200;-74
2021/12/31 04:11:54;;;;;;;7.70;2.70;;;;;;;11.29;100.00;101228.75;5023829;28;20734;-73
2021/12/31 04:14:19;;;;;;;18.57;3.10;;;;;;;11.95;100.00;101323.31;5025933;28;20648;-73
2021/12/31 04:16:45;;;;;;;10.80;3.00;;;;;;;11.43;100.00;101254.69;5029821;28;20188;-74
2021/12/31 04:19:10;;;;;;;11.27;3.03;;;;;;;11.24;100.00;101194.41;5025917;28;20184;-74
2021/12/31 04:21:36;;;;;;;10.80;3.10;;;;;;;10.61;100.00;101108.38;5027188;28;20199;-74
2021/12/31 04:24:13;;;;;;;10.03;2.60;;;;;;;11.80;100.00;101298.34;5024816;28;20216;-74
2021/12/31 04:26:39;;;;;;;8.30;2.97;;;;;;;11.72;100.00;101277.84;5029622;28;20200;-73
2021/12/31 04:29:04;;;;;;;8.07;3.57;;;;;;;11.89;100.00;101310.66;5026039;28;20465;-74
2021/12/31 04:31:30;;;;;;;8.80;2.27;;;;;;;11.38;100.00;101224.88;5026623;28;20723;-74
2021/12/31 04:33:55;;;;;;;6.37;2.00;;;;;;;11.84;100.00;101298.81;5029293;28;20572;-74
2021/12/31 04:36:21;;;;;;;12.90;2.53;;;;;;;11.43;100.00;101233.19;5026888;28;20195;-73
2021/12/31 04:38:46;;;;;;;8.53;2.33;;;;;;;11.31;100.00;101245.47;5025842;28;20192;-72
2021/12/31 04:41:11;;;;;;;9.13;2.30;;;;;;;11.89;100.00;101304.44;5024414;28;20191;-74
2021/12/31 04:43:37;;;;;;;9.20;2.47;;;;;;;11.91;100.00;101323.91;5022169;28;20647;-74
2021/12/31 04:46:02;;;;;;;8.93;2.03;;;;;;;11.65;100.00;101308.38;5028293;28;20184;-74
2021/12/31 04:48:27;;;;;;;11.90;2.40;;;;;;;11.35;100.00;101225.28;5027810;28;20208;-73
2021/12/31 04:50:53;;;;;;;6.47;2.20;;;;;;;11.16;100.00;101207.13;5026671;28;20605;-73
2021/12/31 04:53:18;;;;;;;10.20;3.00;;;;;;;11.66;100.00;101253.63;5025691;28;20219;-74
2021/12/31 04:55:44;;;;;;;6.87;2.30;;;;;;;11.71;100.00;101275.34;5025190;28;20210;-74
2021/12/31 04:58:09;;;;;;;10.93;1.80;;;;;;;11.83;100.00;101299.81;5025887;28;20196;-73
2021/12/31 05:00:35;;;;;;;8.77;1.93;;;;;;;11.47;100.00;101230.94;5026668;28;20604;-73
2021/12/31 05:03:10;;;;;;;5.67;2.00;;;;;;;11.74;100.00;101283.00;5026683;28;20199;-73
2021/12/31 05:05:36;;;;;;;6.17;1.93;;;;;;;11.45;100.00;101215.00;5028860;28;20216;-74
2021/12/31 05:08:03;;;;;;;6.00;2.03;;;;;;;11.88;100.00;101287.47;5024646;28;20592;-73
2021/12/31 05:10:32;;;;;;;10.83;2.83;;;;;;;11.46;100.00;101224.75;5024974;28;20458;-74
2021/12/31 05:13:02;;;;;;;15.47;2.57;;;;;;;12.02;100.00;101311.78;5029550;28;20442;-74
2021/12/31 05:15:32;;;;;;;4.57;2.07;;;;;;;11.46;100.00;101215.88;5022489;28;20494;-73
2021/12/31 05:17:57;;;;;;;6.23;2.20;;;;;;;11.67;100.00;101239.16;5029445;28;20500;-73
2021/12/31 05:20:23;;;;;;;7.97;2.50;;;;;;;11.85;100.00;101271.75;5025979;28;20458;-72
2021/12/31 05:22:49;;;;;;;10.90;2.37;;;;;;;11.31;100.00;101189.94;5027410;28;20202;-73
2021/12/31 05:25:16;;;;;;;11.87;2.90;;;;;;;11.31;100.00;101170.28;5025556;28;20207;-73
2021/12/31 05:27:41;;;;;;;5.70;2.13;;;;;;;11.54;100.00;101211.16;5029855;28;20968;-74
2021/12/31 05:30:07;;;;;;;9.10;2.40;;;;;;;11.74;100.00;101242.69;5027975;28;20453;-72
2021/12/31 05:32:33;;;;;;;8.03;2.30;;;;;;;11.92;100.00;101256.50;5024137;28;20843;-72
2021/12/31 05:34:58;;;;;;;7.60;2.60;;;;;;;11.68;100.00;101219.31;5021677;28;20989;-73
2021/12/31 05:37:24;;;;;;;6.37;2.10;;;;;;;11.40;100.00;101157.53;5029518;28;20274;-72
2021/12/31 05:39:49;;;;;;;8.80;2.07;;;;;;;11.40;100.00;101165.59;5024859;28;20595;-73
2021/12/31 05:42:15;;;;;;;7.57;2.60;;;;;;;11.53;100.00;101179.94;5027576;28;20216;-74
2021/12/31 05:44:40;;;;;;;10.37;2.40;;;;;;;12.20;100.00;101282.50;5021598;28;20223;-73
2021/12/31 05:47:06;;;;;;;9.47;2.23;;;;;;;12.13;100.00;101270.91;5027525;28;20211;-72
2021/12/31 05:49:31;;;;;;;6.30;2.03;;;;;;;11.91;100.00;101236.03;5027477;28;20198;-72
2021/12/31 05:51:57;;;;;;;5.37;2.20;;;;;;;12.13;100.00;101278.97;5027774;28;20446;-72
2021/12/31 05:54:22;;;;;;;4.10;2.40;;;;;;;11.90;100.00;101292.69;5026634;28;20443;-72
2021/12/31 05:56:48;;;;;;;13.63;2.23;;;;;;;12.00;100.00;101268.94;5027103;28;20653;-74
2021/12/31 05:59:13;;;;;;;7.03;2.10;;;;;;;11.67;100.00;101199.66;5027134;28;20187;-72
2021/12/31 06:01:39;;;;;;;8.53;1.90;;;;;;;11.50;100.00;101174.13;5026762;28;20202;-73
2021/12/31 06:04:04;;;;;;;5.03;1.83;;;;;;;12.16;100.00;101275.88;5022992;28;20215;-72
2021/12/31 06:06:29;;;;;;;3.47;1.53;;;;;;;11.81;100.00;101235.53;5027193;28;20196;-72
2021/12/31 06:08:55;;;;;;;5.40;2.50;;;;;;;10.80;100.00;101065.84;5024537;28;20439;-73
2021/12/31 06:11:20;;;;;;;5.63;2.13;;;;;;;12.06;100.00;101265.47;5025198;28;20184;-74
2021/12/31 06:13:49;;;;;;;6.73;1.80;;;;;;;11.49;100.00;101164.44;5023974;28;20311;-72
2021/12/31 06:16:15;;;;;;;4.60;1.70;;;;;;;11.87;100.00;101233.94;5027787;28;21185;-73
2021/12/31 06:18:41;;;;;;;3.53;1.53;;;;;;;12.19;100.00;101283.56;5029700;28;20437;-73
2021/12/31 06:21:07;;;;;;;6.30;2.20;;;;;;;11.98;100.00;101255.72;5027217;28;20549;-74
2021/12/31 06:23:32;;;;;;;6.53;2.50;;;;;;;11.85;100.00;101231.44;5024800;28;20183;-74
2021/12/31 06:25:58;;;;;;;4.27;1.57;;;;;;;11.97;100.00;101253.22;5022153;28;20460;-74
2021/12/31 06:28:23;;;;;;;6.27;2.30;;;;;;;11.65;100.00;101209.78;5028338;28;20681;-73
2021/12/31 06:30:49;;;;;;;5.50;2.03;;;;;;;11.85;100.00;101235.94;5022373;28;21807;-74
2021/12/31 06:33:14;;;;;;;5.83;2.30;;;;;;;11.86;100.00;101229.56;5023196;28;20592;-76
2021/12/31 06:35:40;;;;;;;5.33;2.80;;;;;;;11.66;100.00;101206.09;5025592;28;20290;-75
2021/12/31 06:38:06;;;;;;;7.40;2.80;;;;;;;11.48;100.00;101170.81;5025247;28;20291;-76
2021/12/31 06:40:34;;;;;;;6.23;2.50;;;;;;;11.81;100.00;101240.06;5026733;28;20292;-74
2021/12/31 06:43:00;;;;;;;7.10;2.70;;;;;;;11.71;100.00;101214.34;5025849;28;20536;-74
2021/12/31 06:45:26;;;;;;;6.27;2.90;;;;;;;11.94;100.00;101248.25;5026980;28;20461;-74
2021/12/31 06:47:51;;;;;;;4.23;2.83;;;;;;;11.63;100.00;101192.19;5025948;28;20470;-75
2021/12/31 06:50:17;;;;;;;5.30;2.70;;;;;;;10.66;100.00;101018.47;5026020;28;20332;-75
2021/12/31 06:52:43;;;;;;;4.40;2.37;;;;;;;12.15;100.00;101272.38;5024200;28;20194;-74
2021/12/31 06:55:09;;;;;;;11.87;3.97;;;;;;;11.73;100.00;101182.75;5026693;28;20294;-74
2021/12/31 06:57:35;;;;;;;6.57;3.00;;;;;;;12.15;100.00;101272.38;5021070;28;20441;-74
2021/12/31 07:00:03;;;;;;;6.20;3.00;;;;;;;12.05;100.00;101242.31;5030200;28;20507;-74
2021/12/31 07:02:29;;;;;;;4.97;2.90;;;;;;;12.20;100.00;101277.97;5025160;28;20524;-73
2021/12/31 07:04:54;;;;;;;5.60;2.37;;;;;;;12.11;100.00;101281.03;5025050;28;20863;-77
2021/12/31 07:07:20;;;;;;;4.43;2.27;;;;;;;12.18;100.00;101271.16;5029362;28;20584;-73
2021/12/31 07:09:45;;;;;;;6.30;2.63;;;;;;;12.20;100.00;101283.34;5029317;28;20192;-75
2021/12/31 07:12:10;;;;;;;7.10;2.77;;;;;;;10.91;100.00;101076.03;5029191;28;20525;-75
2021/12/31 07:14:36;;;;;;;4.77;2.50;;;;;;;12.10;100.00;101272.13;5027919;28;20296;-72
2021/12/31 07:17:01;;;;;;;5.00;2.40;;;;;;;11.62;100.00;101196.75;5024530;28;20179;-72
2021/12/31 07:19:27;;;;;;;5.33;2.13;;;;;;;11.92;100.00;101245.75;5027847;28;20189;-71
2021/12/31 07:21:52;;;;;;;4.70;2.30;;;;;;;12.02;100.00;101255.31;5025585;28;21186;-72
2021/12/31 07:24:17;;;;;;;4.57;2.90;;;;;;;11.63;100.00;101211.00;5027976;28;20321;-72
2021/12/31 07:26:43;;;;;;;2.67;2.13;;;;;;;11.45;100.00;101153.22;5025593;28;20285;-73
2021/12/31 07:29:08;;;;;;;6.27;2.43;;;;;;;11.10;100.00;101141.63;5027600;28;20257;-71
2021/12/31 07:31:34;;;;;;;3.87;2.37;;;;;;;11.55;100.00;101171.69;5017354;28;20183;-74
2021/12/31 07:33:59;;;;;;;2.97;2.20;;;;;;;12.03;100.00;101275.78;5024945;28;20212;-73
2021/12/31 07:36:27;;;;;;;6.10;2.50;;;;;;;11.89;100.00;101223.81;5026240;28;20362;-73
2021/12/31 07:38:59;;;;;;;6.90;2.20;;;;;;;11.63;100.00;101176.94;5022854;28;20203;-72
2021/12/31 07:41:25;;;;;;;3.37;1.60;;;;;;;12.09;100.00;101251.66;5022586;28;20845;-74
2021/12/31 07:43:50;;;;;;;5.83;1.77;;;;;;;12.12;100.00;101271.91;5023339;28;20535;-73
2021/12/31 07:46:15;;;;;;;4.70;1.90;;;;;;;11.47;100.00;101170.00;5029325;28;20188;-75
2021/12/31 07:48:41;;;;;;;4.07;1.90;;;;;;;12.06;100.00;101270.00;5026301;28;20672;-73
2021/12/31 07:51:06;;;;;;;1.97;1.47;;;;;;;11.88;100.00;101235.59;5027809;28;20199;-73
2021/12/31 07:53:32;;;;;;;9.20;2.50;;;;;;;11.49;100.00;101178.69;5021448;28;20191;-74
2021/12/31 07:55:57;;;;;;;8.60;2.37;;;;;;;11.53;100.00;101189.88;5020298;28;20192;-73
2021/12/31 07:58:24;;;;;;;3.93;1.80;;;;;;;12.10;100.00;101282.88;5024024;28;20252;-74
2021/12/31 08:00:50;;;;;;;4.60;2.03;;;;;;;12.15;100.00;101295.72;5024782;28;20198;-74
2021/12/31 08:03:15;;;;;;;5.13;1.73;;;;;;;12.18;100.00;101308.78;5023631;28;20478;-73
2021/12/31 08:05:41;;;;;;;4.67;2.00;;;;;;;12.06;100.00;101300.41;5024334;28;20550;-73
2021/12/31 08:08:07;;;;;;;9.20;2.00;;;;;;;11.81;100.00;101270.47;5022904;28;20242;-73
2021/12/31 08:10:33;;;;;;;4.83;1.80;;;;;;;12.11;100.00;101299.84;5025136;28;20534;-72
2021/12/31 08:13:00;;;;;;;6.33;1.97;;;;;;;11.92;100.00;101286.09;5021325;28;20202;-71
2021/12/31 08:15:26;;;;;;;3.43;1.60;;;;;;;10.95;100.00;101146.25;5016643;28;20460;-73
2021/12/31 08:17:53;;;;;;;5.80;2.30;;;;;;;11.51;100.00;101205.34;5024954;28;20991;-72
2021/12/31 08:20:19;;;;;;;2.90;1.50;;;;;;;11.68;100.00;101246.19;5026387;28;20625;-71
2021/12/31 08:22:45;;;;;;;4.00;2.00;;;;;;;11.37;100.00;101223.22;5026501;28;20485;-72
2021/12/31 08:25:10;;;;;;;3.27;1.90;;;;;;;11.89;100.00;101275.72;5026876;28;20490;-73
2021/12/31 08:27:36;;;;;;;6.20;2.17;;;;;;;11.72;100.00;101239.41;5028005;28;20239;-73
2021/12/31 08:30:01;;;;;;;2.17;1.60;;;;;;;12.08;100.00;101297.53;5029196;28;20536;-74
2021/12/31 08:32:26;;;;;;;2.20;1.77;;;;;;;11.53;100.00;101225.59;5028340;28;20819;-74
2021/12/31 08:34:52;;;;;;;4.70;2.10;;;;;;;11.52;100.00;101237.41;5029321;28;20295;-73
2021/12/31 08:37:17;;;;;;;3.87;1.60;;;;;;;11.55;100.00;101233.50;5029897;28;20188;-73
2021/12/31 08:39:43;;;;;;;4.87;2.13;;;;;;;12.17;100.00;101332.13;5029665;28;20574;-72
2021/12/31 08:42:08;;;;;;;6.80;2.47;;;;;;;11.94;100.00;101300.13;5029128;28;20228;-73
2021/12/31 08:44:33;;;;;;;5.10;1.90;;;;;;;12.06;100.00;101288.84;5030008;28;20744;-73
2021/12/31 08:46:59;;;;;;;4.73;1.77;;;;;;;11.62;100.00;101212.84;5030830;28;20210;-73
2021/12/31 08:49:24;;;;;;;3.93;1.70;;;;;;;12.11;100.00;101295.28;5031380;28;20216;-72
2021/12/31 08:51:50;;;;;;;4.07;2.20;;;;;;;11.66;100.00;101211.47;5027571;28;20184;-72
2021/12/31 08:54:16;;;;;;;4.63;2.27;;;;;;;12.16;100.00;101318.91;5029053;28;20212;-73
2021/12/31 08:56:43;;;;;;;2.37;1.80;;;;;;;10.94;100.00;101129.31;5029512;28;20439;-73
2021/12/31 08:59:09;;;;;;;5.47;1.50;;;;;;;12.17;100.00;101307.13;5029344;28;20537;-73
2021/12/31 09:01:34;;;;;;;4.67;2.17;;;;;;;12.10;100.00;101306.25;5025296;28;20443;-71
2021/12/31 09:03:59;;;;;;;5.20;2.03;;;;;;;11.02;100.00;101115.78;5027271;28;20859;-72
2021/12/31 09:06:25;;;;;;;3.40;2.30;;;;;;;11.34;100.00;101193.22;5030163;28;20262;-73
2021/12/31 09:08:50;;;;;;;2.30;1.67;;;;;;;11.87;100.00;101266.19;5034535;28;20207;-72
2021/12/31 09:11:16;;;;;;;2.23;1.63;;;;;;;11.60;100.00;101217.63;5033713;28;20214;-75
2021/12/31 09:13:42;;;;;;;3.50;3.17;;;;;;;11.52;100.00;101213.22;5036196;28;20244;-73
2021/12/31 09:16:11;;;;;;;4.17;2.27;;;;;;;12.22;100.00;101328.88;5033057;28;20461;-73
2021/12/31 09:18:36;;;;;;;4.40;2.60;;;;;;;12.17;100.00;101317.88;5030917;28;20843;-73
2021/12/31 09:21:02;;;;;;;5.33;3.80;;;;;;;12.14;100.00;101321.78;5031422;28;20442;-73
2021/12/31 09:23:28;;;;;;;9.90;6.50;;;;;;;11.13;100.00;101189.56;5032506;28;20694;-72
2021/12/31 09:25:54;;;;;;;8.13;4.70;;;;;;;12.03;100.00;101300.81;5032475;28;20185;-73
2021/12/31 09:28:20;;;;;;;10.97;8.50;;;;;;;11.70;100.00;101255.72;5032698;28;20212;-72
2021/12/31 09:30:45;;;;;;;7.80;3.10;;;;;;;12.18;100.00;101333.81;5031957;28;20445;-72
2021/12/31 09:33:23;;;;;;;7.27;5.20;;;;;;;11.62;100.00;101250.47;5031844;28;20279;-72
2021/12/31 09:35:49;;;;;;;8.67;4.43;;;;;;;11.91;100.00;101295.16;5032473;28;20211;-75
2021/12/31 09:38:14;;;;;;;9.10;6.10;;;;;;;11.90;100.00;101304.25;5031413;28;20439;-72
2021/12/31 09:40:40;;;;;;;4.40;4.00;;;;;;;10.95;100.00;101165.88;5030563;28;20676;-72
2021/12/31 09:43:09;;;;;;;5.00;2.43;;;;;;;12.06;100.00;101361.44;5027286;28;20206;-70
2021/12/31 09:45:36;;;;;;;5.30;3.03;;;;;;;12.16;100.00;101361.94;5033289;28;20743;-73
2021/12/31 09:48:09;;;;;;;8.50;2.60;;;;;;;12.01;100.00;101361.22;5033987;28;20979;-73
2021/12/31 09:50:41;;;;;;;8.10;2.83;;;;;;;12.07;100.00;101352.38;5033174;28;20477;-74
2021/12/31 09:53:08;;;;;;;6.47;2.57;;;;;;;11.94;100.00;101355.75;5041216;28;20428;-71
2021/12/31 09:55:45;;;;;;;6.53;2.60;;;;;;;12.15;100.00;101371.88;5031800;28;20853;-74
2021/12/31 09:58:12;;;;;;;5.10;2.93;;;;;;;11.97;100.00;101344.63;5032038;28;20462;-73
2021/12/31 10:00:42;;;;;;;6.63;3.10;;;;;;;11.50;100.00;101282.41;5030936;28;20454;-72
2021/12/31 10:03:25;;;;;;;4.00;2.67;;;;;;;11.93;100.00;101348.75;5034040;28;20434;-71
2021/12/31 10:05:59;;;;;;;9.30;3.03;;;;;;;12.07;100.00;101374.69;5033104;28;20454;-74
2021/12/31 10:08:26;;;;;;;4.57;2.10;;;;;;;12.10;100.00;101376.16;5033358;28;20496;-71
2021/12/31 10:11:04;;;;;;;8.13;3.00;;;;;;;12.08;100.00;101381.72;5030522;28;20528;-72
2021/12/31 10:13:31;;;;;;;3.93;2.50;;;;;;;11.67;100.00;101317.06;5030409;28;20511;-72
2021/12/31 10:15:57;;;;;;;9.50;2.30;;;;;;;11.94;100.00;101351.22;5032766;28;20434;-72
2021/12/31 10:18:34;;;;;;;5.80;2.80;;;;;;;12.05;100.00;101365.16;5031927;28;20450;-73
2021/12/31 10:21:00;;;;;;;5.27;2.63;;;;;;;12.03;100.00;101384.16;5029441;28;20435;-72
2021/12/31 10:23:26;;;;;;;7.70;2.73;;;;;;;11.34;100.00;101261.22;5034205;28;20442;-73
2021/12/31 10:26:06;;;;;;;5.50;2.60;;;;;;;11.59;100.00;101301.09;5031949;28;20199;-73
2021/12/31 10:28:31;;;;;;;4.50;2.60;;;;;;;11.94;100.00;101383.47;5030429;28;20220;-75
2021/12/31 10:31:12;;;;;;;7.33;2.97;;;;;;;11.94;100.00;101374.59;5032648;28;20446;-72
2021/12/31 10:33:41;;;;;;;5.63;2.90;;;;;;;11.41;100.00;101312.31;5030842;28;20699;-74
2021/12/31 10:36:06;;;;;;;8.77;2.57;;;;;;;11.29;100.00;101282.44;5031703;28;20497;-72
2021/12/31 10:38:39;;;;;;;11.93;4.67;;;;;;;11.58;100.00;101311.00;5027741;28;20434;-73
2021/12/31 10:41:05;;;;;;;9.63;3.87;;;;;;;11.88;100.00;101352.00;5027942;28;20188;-72
2021/12/31 10:43:30;;;;;;;4.77;3.00;;;;;;;11.44;100.00;101285.88;5030950;28;20457;-73
2021/12/31 10:46:08;;;;;;;7.10;5.00;;;;;;;11.80;100.00;101338.66;5032365;28;20216;-73
2021/12/31 10:48:43;;;;;;;8.67;3.20;;;;;;;11.77;100.00;101353.34;5032337;28;20195;-72
2021/12/31 10:51:14;;;;;;;7.00;3.40;;;;;;;11.44;100.00;101293.13;5028457;28;20444;-72
2021/12/31 10:53:41;;;;;;;7.20;3.63;;;;;;;11.81;100.00;101364.53;5028948;28;20482;-73
2021/12/31 10:56:09;;;;;;;6.90;3.33;;;;;;;11.32;100.00;101311.59;5028380;28;20442;-74
2021/12/31 10:58:37;;;;;;;5.57;2.80;;;;;;;11.56;100.00;101326.47;5029745;28;20450;-74
2021/12/31 11:01:10;;;;;;;7.90;3.30;;;;;;;11.38;100.00;101320.75;5029754;28;20529;-74
2021/12/31 11:03:37;;;;;;;5.77;3.00;;;;;;;11.67;100.00;101352.00;5030358;28;20430;-73
2021/12/31 11:06:04;;;;;;;10.03;3.17;;;;;;;11.56;100.00;101313.06;5031143;28;21065;-73
2021/12/31 11:08:31;;;;;;;6.30;2.53;;;;;;;11.24;100.00;101276.81;5024087;28;20467;-74
2021/12/31 11:10:57;;;;;;;5.03;2.37;;;;;;;11.45;100.00;101300.13;5023386;28;20488;-73
2021/12/31 11:13:28;;;;;;;7.23;3.87;;;;;;;11.42;100.00;101287.09;5030756;28;20446;-74
2021/12/31 11:15:54;;;;;;;8.00;2.53;;;;;;;11.20;100.00;101262.94;5027972;28;21025;-73